Wetterdaten: aktuell Donnerstag, 18.08.2022 18:22
Datum Zeit Temp. A. Feuchte A. Luftdruck Regen Wind Richtung Richtung Sonnenschein ET Solar Taupunkt Windchill Windben
18.08.2022 18:22 27,6 C 54 % 1013,5 hPa 0,0 l/m 11,3 km/h (2 Bft) W-NW 282 34 min 0,000 mm 118 W/m 17,4 C 27,6 C 16,1 km/h (3 Bft)
18.08.2022 17:22 28,7 C 50 % 1014,1 hPa 0,0 l/m 8,1 km/h (2 Bft) W-NW 301 20 min 0,000 mm 220 W/m 17,2 C 28,7 C 12,9 km/h (3 Bft)
18.08.2022 16:22 28,4 C 48 % 1014,2 hPa 0,0 l/m 7,4 km/h (2 Bft) W-NW 300 24 min 0,000 mm 294 W/m 16,3 C 28,4 C 12,9 km/h (3 Bft)
18.08.2022 15:22 28,6 C 48 % 1014,5 hPa 0,0 l/m 11,4 km/h (2 Bft) W 276 14 min 0,000 mm 466 W/m 16,5 C 28,6 C 16,1 km/h (3 Bft)
18.08.2022 14:22 28,8 C 46 % 1015,0 hPa 0,0 l/m 13,2 km/h (3 Bft) W 271 0 min 0,000 mm 183 W/m 16,0 C 28,8 C 17,7 km/h (3 Bft)
18.08.2022 13:22 30,9 C 39 % 1014,5 hPa 0,0 l/m 2,1 km/h (1 Bft) SO 138 0 min 0,000 mm 127 W/m 15,3 C 30,9 C 6,4 km/h (2 Bft)
18.08.2022 12:22 32,3 C 37 % 1014,3 hPa 0,0 l/m 1,3 km/h (1 Bft) N-NO 22 2 min 0,000 mm 290 W/m 15,7 C 32,3 C 4,8 km/h (1 Bft)
18.08.2022 11:22 30,7 C 40 % 1014,8 hPa 0,0 l/m 4,0 km/h (1 Bft) O-NO 65 16 min 0,000 mm 355 W/m 15,5 C 30,7 C 11,3 km/h (2 Bft)
18.08.2022 10:22 27,7 C 53 % 1015,3 hPa 0,0 l/m 0,1 km/h (0 Bft) O-NO 71 0 min 0,000 mm 160 W/m 17,2 C 27,7 C 1,6 km/h (1 Bft)
18.08.2022 09:22 25,1 C 59 % 1015,1 hPa 0,0 l/m 1,2 km/h (1 Bft) N 360 28 min 0,000 mm 171 W/m 16,5 C 25,1 C 3,2 km/h (1 Bft)
18.08.2022 08:22 21,9 C 64 % 1015,1 hPa 0,0 l/m 0,6 km/h (0 Bft) NW 306 46 min 0,000 mm 246 W/m 14,8 C 21,9 C 1,6 km/h (1 Bft)
18.08.2022 07:22 17,7 C 76 % 1015,3 hPa 0,0 l/m 0,0 km/h (0 Bft) N 0 0 min 0,000 mm 51 W/m 13,4 C 17,7 C 0,0 km/h (0 Bft)
18.08.2022 06:22 16,2 C 76 % 1015,0 hPa 0,0 l/m 1,3 km/h (1 Bft) SW 223 0 min 0,000 mm 7 W/m 12,0 C 16,2 C 3,2 km/h (1 Bft)
18.08.2022 05:20 16,7 C 76 % 1014,8 hPa 0,0 l/m 0,1 km/h (0 Bft) S 169 0 min 0,000 mm 0 W/m 12,4 C 16,7 C 3,2 km/h (1 Bft)
18.08.2022 04:20 16,7 C 73 % 1015,2 hPa 0,0 l/m 0,0 km/h (0 Bft) N 0 0 min 0,000 mm 0 W/m 11,8 C 16,7 C 0,0 km/h (0 Bft)
18.08.2022 03:20 17,1 C 70 % 1015,3 hPa 0,0 l/m 0,0 km/h (0 Bft) S-SW 208 0 min 0,000 mm 0 W/m 11,6 C 17,1 C 0,1 km/h (0 Bft)
18.08.2022 02:20 17,6 C 71 % 1015,1 hPa 0,0 l/m 0,0 km/h (0 Bft) N 0 0 min 0,000 mm 0 W/m 12,3 C 17,6 C 0,0 km/h (0 Bft)
18.08.2022 01:20 18,5 C 66 % 1015,4 hPa 0,0 l/m 0,0 km/h (0 Bft) S-SO 167 0 min 0,000 mm 0 W/m 12,0 C 18,5 C 1,6 km/h (1 Bft)
18.08.2022 00:20 19,4 C 65 % 1015,5 hPa 0,0 l/m 1,1 km/h (1 Bft) SO 127 0 min 0,000 mm 0 W/m 12,6 C 19,4 C 3,2 km/h (1 Bft)
18.08.2022 00:00 20,6 C 62 % 1015,5 hPa 0,0 l/m 0,3 km/h (0 Bft) O-NO 69 0 min 0,000 mm 0 W/m 13,1 C 20,6 C 1,6 km/h (1 Bft)
_ Min-Zeit 06:24 12:32 17:52 - 00:02 - - - - - 03:22 06:24 00:02
Minimum _ 16,1 C 34 % 1013,5 hPa - 0,0 km/h (0 Bft) - - - - - 11,5 C 16,1 C 0,0 km/h (0 Bft)
_ Max-Zeit 12:24 06:38 00:10 00:00 16:00 - - 07:38 00:00 11:18 17:54 12:24 13:10
Maximum _ 32,4 C 77 % 1015,7 hPa 0,0 l/m 14,6 km/h
W (3 Bft)
- - 2 min 0,000 mm 693 W/m 17,5 C 32,4 C 27,4 km/h
W-NW (4 Bft)
Durchschnitt _ 23,6 C 59 % 1014,9 hPa #0,0 l/m 3,2 km/h (1 Bft) W-NW - #3:04 h #0,000 mm 212 W/m 14,5 C 23,6 C 5,8 km/h (2 Bft)